createdAt,value
2023-03-24T09:48:18.040Z,23.6513
2023-03-24T09:49:19.148Z,23.6920
2023-03-24T09:50:22.722Z,23.6776
2023-03-24T09:51:21.176Z,23.7433
2023-03-24T09:52:22.283Z,23.7279
2023-03-24T09:53:23.458Z,23.8312
2023-03-24T09:54:24.648Z,23.8851
2023-03-24T09:55:25.835Z,23.8335
2023-03-24T09:56:27.281Z,23.8023
2023-03-24T09:57:28.457Z,23.7693
2023-03-24T09:58:29.652Z,23.7972
2023-03-24T09:59:30.797Z,23.7344
2023-03-24T10:00:32.020Z,23.6821
2023-03-24T10:01:33.161Z,23.6785
2023-03-24T10:02:34.602Z,23.7310
2023-03-24T10:03:35.830Z,23.7018
2023-03-24T10:04:36.993Z,23.7213
2023-03-24T10:05:38.139Z,23.7359
2023-03-24T10:06:39.343Z,23.7057
2023-03-24T10:07:40.534Z,23.7070
2023-03-24T10:08:41.978Z,23.7069
2023-03-24T10:09:43.136Z,23.7742
2023-03-24T10:10:44.346Z,23.7795
2023-03-24T10:11:45.536Z,23.7189
2023-03-24T10:12:46.735Z,23.7087
2023-03-24T10:13:47.954Z,23.6967
2023-03-24T10:14:49.274Z,23.7520
2023-03-24T10:15:50.542Z,23.7293
2023-03-24T10:16:51.802Z,23.7382
2023-03-24T10:17:53.047Z,23.6783
2023-03-24T10:18:54.200Z,23.7382
2023-03-24T10:19:59.734Z,23.7693
2023-03-24T10:20:58.288Z,23.7913
2023-03-24T10:21:59.425Z,23.7761
2023-03-24T10:23:00.603Z,23.7891
2023-03-24T10:24:01.792Z,23.7241
2023-03-24T10:25:02.976Z,23.7302
2023-03-24T10:26:04.164Z,23.7697
2023-03-24T10:27:05.496Z,23.7722
2023-03-24T10:28:06.660Z,23.7625
2023-03-24T10:29:07.841Z,23.7560
2023-03-24T10:30:09.018Z,23.7227
2023-03-24T10:31:10.185Z,23.6474
2023-03-24T10:32:11.372Z,23.6203
2023-03-24T10:33:12.776Z,23.6090
2023-03-24T10:34:13.962Z,23.5450
2023-03-24T10:35:15.152Z,23.4879
2023-03-24T10:36:16.385Z,23.4695
2023-03-24T10:37:17.562Z,23.4955
2023-03-24T10:38:18.775Z,23.5368
2023-03-24T10:39:26.100Z,23.5714
2023-03-24T10:40:20.738Z,23.5618
2023-03-24T10:41:21.876Z,23.5868
2023-03-24T10:42:23.062Z,23.5649
2023-03-24T10:43:24.332Z,23.5823
2023-03-24T10:44:25.543Z,23.5229
2023-03-24T10:45:26.889Z,23.5480
2023-03-24T10:46:28.039Z,23.5469
2023-03-24T10:47:30.744Z,23.5263
2023-03-24T10:48:30.609Z,23.5346
2023-03-24T10:49:31.785Z,23.4889
2023-03-24T10:50:32.971Z,23.4658
2023-03-24T10:51:34.338Z,23.5376
2023-03-24T10:52:35.477Z,23.5708
2023-03-24T10:53:36.675Z,23.5369
2023-03-24T10:54:37.935Z,23.5597
2023-03-24T10:55:39.202Z,23.4892
2023-03-24T10:56:40.390Z,23.5057
2023-03-24T10:57:41.735Z,23.4651
2023-03-24T10:58:42.853Z,23.5140
2023-03-24T10:59:44.092Z,23.5073
2023-03-24T11:00:45.254Z,23.5277
2023-03-24T11:01:46.606Z,23.5090
2023-03-24T11:02:47.933Z,23.4799
2023-03-24T11:03:49.314Z,23.4570
2023-03-24T11:04:50.491Z,23.4431
